Terminal Aerodrome Forecast
Issued by NWS Detroit/Pontiac, MI

Home | Current Version | Previous Version | Text Only | Print | Product List | Glossary On
Versions: 1 2 3 4 5 6 7 8 9 10 11 12 13 14 15 16 17 18 19 20 21 22 23 24
128
FTUS43 KDTX 271120
TAFDTW
TAF
KDTW 271120Z 2712/2818 21007KT P6SM FEW050 BKN250
     FM271600 19010KT P6SM BKN040
     FM280100 18005KT P6SM SCT060 BKN200
     FM281000 17003KT 6SM BR SCT040 BKN200
     FM281300 18010KT P6SM BKN080=

USA.gov is the U.S. government's official web portal to all federal, state and local government web resources and services.